createdAt,value
2023-06-11T00:02:16.738Z,7.43
2023-06-11T00:04:46.622Z,7.03
2023-06-11T00:07:15.104Z,6.80
2023-06-11T00:09:46.960Z,7.40
2023-06-11T00:12:15.134Z,7.50
2023-06-11T00:14:43.181Z,8.60
2023-06-11T00:17:13.180Z,7.50
2023-06-11T00:19:41.723Z,7.77
2023-06-11T00:22:09.835Z,8.07
2023-06-11T00:24:37.819Z,7.57
2023-06-11T00:27:07.171Z,7.87
2023-06-11T00:29:35.228Z,7.00
2023-06-11T00:32:03.459Z,7.60
2023-06-11T00:34:32.808Z,7.13
2023-06-11T00:37:01.888Z,7.07
2023-06-11T00:39:29.919Z,7.73
2023-06-11T00:41:58.601Z,6.53
2023-06-11T00:44:26.589Z,6.30
2023-06-11T00:46:55.338Z,6.40
2023-06-11T00:49:24.166Z,7.17
2023-06-11T00:51:54.588Z,7.03
2023-06-11T00:54:22.855Z,6.77
2023-06-11T00:56:52.445Z,7.03
2023-06-11T00:59:20.759Z,6.97
2023-06-11T01:01:59.293Z,6.30
2023-06-11T01:04:30.389Z,6.20
2023-06-11T01:07:02.690Z,6.57
2023-06-11T01:09:31.989Z,7.07
2023-06-11T01:12:00.153Z,6.73
2023-06-11T01:14:28.251Z,6.27
2023-06-11T01:17:04.177Z,6.83
2023-06-11T01:19:56.553Z,6.67
2023-06-11T01:22:31.544Z,6.80
2023-06-11T01:25:18.787Z,6.70
2023-06-11T01:28:13.477Z,7.17
2023-06-11T01:30:44.496Z,7.00
2023-06-11T01:33:15.346Z,6.60
2023-06-11T01:35:48.092Z,6.20
2023-06-11T01:38:16.377Z,6.90
2023-06-11T01:40:49.846Z,6.60
2023-06-11T01:43:19.746Z,6.20
2023-06-11T01:45:48.206Z,6.70
2023-06-11T01:48:16.770Z,6.90
2023-06-11T01:50:44.717Z,6.97
2023-06-11T01:53:13.853Z,6.50
2023-06-11T01:55:43.754Z,6.53
2023-06-11T01:58:12.950Z,7.70
2023-06-11T02:00:42.765Z,7.17
2023-06-11T02:03:11.327Z,7.33
2023-06-11T02:05:39.703Z,6.90
2023-06-11T02:08:07.682Z,7.20
2023-06-11T02:10:35.647Z,7.90
2023-06-11T02:13:03.741Z,7.13
2023-06-11T02:15:31.807Z,7.80
2023-06-11T02:18:01.310Z,7.40
2023-06-11T02:20:29.462Z,7.00
2023-06-11T02:22:57.533Z,7.20
2023-06-11T02:25:25.832Z,8.03
2023-06-11T02:27:55.855Z,7.90
2023-06-11T02:30:24.278Z,7.43
2023-06-11T02:32:52.440Z,7.97
2023-06-11T02:35:22.009Z,7.70
2023-06-11T02:37:50.096Z,8.33
2023-06-11T02:40:18.237Z,7.93
2023-06-11T02:42:46.527Z,7.60
2023-06-11T02:45:14.519Z,8.03
2023-06-11T02:47:43.164Z,7.73
2023-06-11T02:50:11.798Z,7.70
2023-06-11T02:52:41.175Z,8.07
2023-06-11T02:55:09.993Z,8.03
2023-06-11T02:57:39.101Z,8.10
2023-06-11T03:00:11.128Z,8.03
2023-06-11T03:02:39.496Z,7.93
2023-06-11T03:05:08.116Z,7.70
2023-06-11T03:07:36.479Z,8.50
2023-06-11T03:10:07.122Z,7.63
2023-06-11T03:12:35.286Z,8.03
2023-06-11T03:15:03.459Z,8.13
2023-06-11T03:17:32.678Z,8.27
2023-06-11T03:20:00.802Z,8.63
2023-06-11T03:22:28.940Z,8.40
2023-06-11T03:24:57.064Z,7.50
2023-06-11T03:27:36.064Z,8.27
2023-06-11T03:30:04.520Z,8.57
2023-06-11T03:32:34.412Z,8.43
2023-06-11T03:35:02.852Z,8.57
2023-06-11T03:37:31.641Z,7.87
2023-06-11T03:40:01.311Z,7.77
2023-06-11T03:42:31.082Z,7.80
2023-06-11T03:45:00.646Z,8.40
2023-06-11T03:47:29.678Z,8.20
2023-06-11T03:49:57.855Z,8.03
2023-06-11T03:52:26.026Z,8.83
2023-06-11T03:54:54.390Z,7.87
2023-06-11T03:57:22.851Z,8.33
2023-06-11T03:59:51.981Z,7.70
2023-06-11T04:02:21.463Z,7.47
2023-06-11T04:04:49.565Z,8.33
2023-06-11T04:07:17.707Z,8.57
2023-06-11T04:09:45.751Z,7.53
2023-06-11T04:12:14.763Z,8.67
2023-06-11T04:14:43.123Z,8.17
2023-06-11T04:17:11.722Z,7.93
2023-06-11T04:19:41.297Z,7.97
2023-06-11T04:22:09.780Z,8.10
2023-06-11T04:24:37.766Z,8.40
2023-06-11T04:27:08.163Z,7.90
2023-06-11T04:29:38.091Z,8.13
2023-06-11T04:32:08.264Z,8.53
2023-06-11T04:34:38.789Z,8.30
2023-06-11T04:37:09.923Z,8.83
2023-06-11T04:39:39.956Z,8.10
2023-06-11T04:42:09.189Z,8.30
2023-06-11T04:44:37.656Z,8.43
2023-06-11T04:47:07.895Z,8.03
2023-06-11T04:49:38.845Z,8.43
2023-06-11T04:52:09.628Z,8.77
2023-06-11T04:54:38.137Z,8.43
2023-06-11T04:57:07.653Z,8.70
2023-06-11T04:59:35.913Z,8.17
2023-06-11T05:02:04.429Z,8.10
2023-06-11T05:04:32.957Z,8.07
2023-06-11T05:07:02.271Z,7.63
2023-06-11T05:09:32.926Z,7.23
2023-06-11T05:12:01.224Z,6.90
2023-06-11T05:14:30.985Z,7.03
2023-06-11T05:17:01.188Z,7.40
2023-06-11T05:19:30.188Z,6.77
2023-06-11T05:21:58.740Z,6.90
2023-06-11T05:24:30.471Z,7.23
2023-06-11T05:27:02.757Z,7.80
2023-06-11T05:29:33.564Z,6.90
2023-06-11T05:32:03.733Z,6.77
2023-06-11T05:34:34.324Z,6.87
2023-06-11T05:37:07.931Z,6.60
2023-06-11T05:39:36.625Z,6.00
2023-06-11T05:42:08.533Z,6.73
2023-06-11T05:44:38.406Z,6.37
2023-06-11T05:47:07.008Z,6.37
2023-06-11T05:49:35.119Z,6.23
2023-06-11T05:52:03.550Z,5.90
2023-06-11T05:54:31.858Z,6.17
2023-06-11T05:57:00.154Z,6.40
2023-06-11T05:59:29.831Z,6.30
2023-06-11T06:01:57.932Z,6.27
2023-06-11T06:04:26.333Z,6.03
2023-06-11T06:06:54.522Z,5.57
2023-06-11T06:09:22.681Z,5.37
2023-06-11T06:11:50.949Z,5.57
2023-06-11T06:14:21.990Z,5.33
2023-06-11T06:16:53.543Z,5.50
2023-06-11T06:19:27.878Z,5.20
2023-06-11T06:21:55.983Z,5.47
2023-06-11T06:24:24.753Z,5.27
2023-06-11T06:26:57.349Z,5.30
2023-06-11T06:29:29.003Z,5.13
2023-06-11T06:31:58.507Z,4.97
2023-06-11T06:34:27.040Z,5.53
2023-06-11T06:36:55.192Z,4.97
2023-06-11T06:39:23.772Z,4.83
2023-06-11T06:41:52.694Z,5.10
2023-06-11T06:44:24.169Z,5.13
2023-06-11T06:46:54.851Z,5.33
2023-06-11T06:49:26.303Z,4.97
2023-06-11T06:51:54.407Z,5.17
2023-06-11T06:54:22.438Z,4.83
2023-06-11T06:56:52.562Z,4.83
2023-06-11T06:59:20.934Z,5.07
2023-06-11T07:01:49.459Z,5.00
2023-06-11T07:04:17.856Z,4.80
2023-06-11T07:06:47.314Z,5.13
2023-06-11T07:09:16.054Z,4.67
2023-06-11T07:11:48.105Z,5.13
2023-06-11T07:14:16.377Z,5.20
2023-06-11T07:16:44.831Z,4.90
2023-06-11T07:19:13.264Z,4.70
2023-06-11T07:21:41.378Z,4.97
2023-06-11T07:24:11.283Z,5.03
2023-06-11T07:26:40.957Z,5.00
2023-06-11T07:29:12.521Z,4.97
2023-06-11T07:31:41.386Z,5.20
2023-06-11T07:34:09.657Z,5.07
2023-06-11T07:36:38.265Z,4.97
2023-06-11T07:39:07.711Z,4.40
2023-06-11T07:41:38.377Z,4.77
2023-06-11T07:44:09.154Z,4.33
2023-06-11T07:46:38.043Z,4.17
2023-06-11T07:49:06.548Z,4.70
2023-06-11T07:51:34.684Z,4.37
2023-06-11T07:54:07.233Z,4.60
2023-06-11T07:56:35.586Z,4.57
2023-06-11T07:59:05.055Z,4.37
2023-06-11T08:01:33.179Z,4.40
2023-06-11T08:04:01.290Z,4.57
2023-06-11T08:06:29.343Z,4.63
2023-06-11T08:08:58.026Z,4.47
2023-06-11T08:11:26.306Z,4.17
2023-06-11T08:13:54.418Z,4.87
2023-06-11T08:16:24.059Z,4.17
2023-06-11T08:18:52.129Z,5.13
2023-06-11T08:21:20.204Z,4.43
2023-06-11T08:23:49.607Z,4.67
2023-06-11T08:26:17.767Z,4.00
2023-06-11T08:28:45.809Z,4.37
2023-06-11T08:31:15.839Z,4.27
2023-06-11T08:33:45.366Z,4.43
2023-06-11T08:36:13.696Z,4.13
2023-06-11T08:38:41.826Z,4.07
2023-06-11T08:41:09.979Z,3.97
2023-06-11T08:43:39.190Z,4.07
2023-06-11T08:46:07.433Z,4.30
2023-06-11T08:48:38.532Z,3.97
2023-06-11T08:51:09.986Z,4.00
2023-06-11T08:53:38.541Z,3.83
2023-06-11T08:56:08.412Z,3.50
2023-06-11T08:58:38.142Z,3.90
2023-06-11T09:01:10.368Z,3.40
2023-06-11T09:03:39.074Z,3.87
2023-06-11T09:06:09.187Z,3.30
2023-06-11T09:08:40.760Z,3.50
2023-06-11T09:11:11.429Z,3.77
2023-06-11T09:13:42.299Z,3.53
2023-06-11T09:16:10.545Z,3.37
2023-06-11T09:18:38.575Z,3.30
2023-06-11T09:21:08.876Z,4.00
2023-06-11T09:23:40.264Z,3.60
2023-06-11T09:26:08.483Z,3.13
2023-06-11T09:28:37.485Z,4.10
2023-06-11T09:31:06.290Z,3.87
2023-06-11T09:33:34.640Z,3.70
2023-06-11T09:36:03.128Z,3.60
2023-06-11T09:38:35.653Z,3.57
2023-06-11T09:41:06.736Z,3.53
2023-06-11T09:43:35.832Z,3.77
2023-06-11T09:46:04.153Z,4.10
2023-06-11T09:48:32.404Z,4.00
2023-06-11T09:51:03.776Z,3.83
2023-06-11T09:53:36.019Z,4.07
2023-06-11T09:56:11.581Z,4.03
2023-06-11T09:58:42.201Z,3.80
2023-06-11T10:01:12.596Z,3.83
2023-06-11T10:03:41.205Z,4.13
2023-06-11T10:06:16.024Z,3.70
2023-06-11T10:08:49.728Z,3.97
2023-06-11T10:11:19.768Z,3.83
2023-06-11T10:13:58.172Z,3.83
2023-06-11T10:16:26.633Z,3.90
2023-06-11T10:19:04.750Z,4.10
2023-06-11T10:21:35.681Z,3.70
2023-06-11T10:24:05.763Z,4.03
2023-06-11T10:26:37.521Z,4.07
2023-06-11T10:29:12.770Z,4.40
2023-06-11T10:31:41.469Z,3.70
2023-06-11T10:34:09.639Z,4.40
2023-06-11T10:36:39.988Z,4.30
2023-06-11T10:39:11.065Z,4.20
2023-06-11T10:41:40.304Z,4.17
2023-06-11T10:44:08.701Z,4.40
2023-06-11T10:46:47.864Z,4.10
2023-06-11T10:49:16.676Z,3.90
2023-06-11T10:51:45.076Z,4.50
2023-06-11T10:54:26.062Z,4.20
2023-06-11T10:56:54.172Z,4.03
2023-06-11T10:59:22.792Z,4.53
2023-06-11T11:01:53.663Z,4.30
2023-06-11T11:04:22.674Z,4.27
2023-06-11T11:06:54.003Z,4.20
2023-06-11T11:09:24.490Z,4.33
2023-06-11T11:11:53.488Z,4.10
2023-06-11T11:14:21.608Z,4.43
2023-06-11T11:16:50.112Z,4.20
2023-06-11T11:19:26.528Z,3.83
2023-06-11T11:21:54.782Z,4.20
2023-06-11T11:24:24.807Z,4.23
2023-06-11T11:26:56.209Z,4.10
2023-06-11T11:29:25.058Z,4.10
2023-06-11T11:31:53.235Z,4.03
2023-06-11T11:34:21.499Z,3.73
2023-06-11T11:36:51.879Z,3.73
2023-06-11T11:39:20.255Z,3.97
2023-06-11T11:41:52.375Z,4.20
2023-06-11T11:44:21.220Z,4.03
2023-06-11T11:46:49.440Z,3.90
2023-06-11T11:49:17.609Z,4.50
2023-06-11T11:51:52.460Z,4.33
2023-06-11T11:54:21.643Z,4.40
2023-06-11T11:56:59.393Z,4.27
2023-06-11T11:59:29.388Z,4.23
2023-06-11T12:02:00.504Z,4.20
2023-06-11T12:04:37.011Z,3.83
2023-06-11T12:07:07.576Z,4.10
2023-06-11T12:09:38.092Z,3.93
2023-06-11T12:12:08.876Z,4.10
2023-06-11T12:14:37.382Z,3.93
2023-06-11T12:17:08.849Z,3.80
2023-06-11T12:19:37.181Z,4.17
2023-06-11T12:22:06.337Z,4.27
2023-06-11T12:24:35.007Z,3.80
2023-06-11T12:27:08.608Z,4.30
2023-06-11T12:29:41.067Z,4.17
2023-06-11T12:32:15.456Z,4.47
2023-06-11T12:34:43.959Z,4.90
2023-06-11T12:37:12.216Z,4.50
2023-06-11T12:39:44.378Z,4.17
2023-06-11T12:42:15.119Z,4.20
2023-06-11T12:44:46.618Z,4.17
2023-06-11T12:47:15.418Z,3.83
2023-06-11T12:49:43.520Z,4.50
2023-06-11T12:52:12.472Z,4.60
2023-06-11T12:54:41.124Z,4.67
2023-06-11T12:57:09.400Z,4.60
2023-06-11T12:59:38.489Z,4.60
2023-06-11T13:02:11.849Z,4.50
2023-06-11T13:04:40.151Z,4.00
2023-06-11T13:07:08.353Z,4.83
2023-06-11T13:09:36.597Z,3.90
2023-06-11T13:12:05.463Z,4.33
2023-06-11T13:14:33.509Z,4.20
2023-06-11T13:17:01.500Z,4.00
2023-06-11T13:19:30.913Z,4.20
2023-06-11T13:21:59.096Z,4.23
2023-06-11T13:24:27.746Z,4.80
2023-06-11T13:26:57.574Z,4.20
2023-06-11T13:29:25.723Z,4.43
2023-06-11T13:31:54.279Z,4.20
2023-06-11T13:34:22.298Z,4.60
2023-06-11T13:36:59.346Z,4.77
2023-06-11T13:39:27.511Z,4.00
2023-06-11T13:41:55.708Z,4.60
2023-06-11T13:44:25.341Z,3.90
2023-06-11T13:46:53.739Z,4.40
2023-06-11T13:49:22.254Z,4.17
2023-06-11T13:51:51.887Z,4.50
2023-06-11T13:54:19.974Z,4.27
2023-06-11T13:56:48.257Z,3.87
2023-06-11T13:59:16.424Z,4.80
2023-06-11T14:01:44.530Z,4.10
2023-06-11T14:04:12.659Z,4.30
2023-06-11T14:06:41.258Z,4.40
2023-06-11T14:09:11.581Z,4.23
2023-06-11T14:11:39.637Z,4.10
2023-06-11T14:14:08.014Z,3.90
2023-06-11T14:16:36.176Z,4.70
2023-06-11T14:19:04.502Z,3.97
2023-06-11T14:21:32.615Z,4.37
2023-06-11T14:24:00.730Z,4.30
2023-06-11T14:26:30.152Z,4.30
2023-06-11T14:28:58.482Z,4.17
2023-06-11T14:31:26.777Z,3.80
2023-06-11T14:33:55.023Z,3.83
2023-06-11T14:36:23.069Z,3.97
2023-06-11T14:38:51.160Z,4.60
2023-06-11T14:41:19.510Z,4.37
2023-06-11T14:43:49.048Z,4.10
2023-06-11T14:46:17.091Z,4.63
2023-06-11T14:48:45.174Z,4.43
2023-06-11T14:51:13.250Z,4.83
2023-06-11T14:53:41.268Z,4.37
2023-06-11T14:56:09.574Z,4.80
2023-06-11T14:58:37.618Z,4.27
2023-06-11T15:01:09.100Z,4.80
2023-06-11T15:03:37.431Z,4.97
2023-06-11T15:06:06.465Z,4.80
2023-06-11T15:08:34.597Z,4.80
2023-06-11T15:11:02.718Z,4.33
2023-06-11T15:13:30.825Z,4.67
2023-06-11T15:15:59.049Z,4.40
2023-06-11T15:18:28.658Z,4.57
2023-06-11T15:20:56.687Z,4.13
2023-06-11T15:23:24.842Z,4.73
2023-06-11T15:25:53.450Z,4.40
2023-06-11T15:28:21.648Z,4.60
2023-06-11T15:30:49.932Z,4.50
2023-06-11T15:33:18.824Z,4.20
2023-06-11T15:35:48.300Z,4.47
2023-06-11T15:38:16.510Z,4.60
2023-06-11T15:40:44.798Z,5.00
2023-06-11T15:43:13.499Z,5.07
2023-06-11T15:45:41.804Z,4.70
2023-06-11T15:48:09.949Z,4.80
2023-06-11T15:50:38.212Z,4.53
2023-06-11T15:53:07.849Z,4.50
2023-06-11T15:55:35.898Z,5.00
2023-06-11T15:58:04.834Z,4.43
2023-06-11T16:00:34.847Z,4.50
2023-06-11T16:03:02.987Z,4.67
2023-06-11T16:05:31.136Z,4.43
2023-06-11T16:07:59.207Z,4.20
2023-06-11T16:10:28.780Z,4.70
2023-06-11T16:12:56.912Z,4.77
2023-06-11T16:15:25.787Z,4.50
2023-06-11T16:17:54.100Z,4.10
2023-06-11T16:20:22.168Z,4.13
2023-06-11T16:22:50.368Z,4.63
2023-06-11T16:25:20.522Z,4.67
2023-06-11T16:27:50.362Z,4.40
2023-06-11T16:30:18.546Z,4.30
2023-06-11T16:32:46.715Z,4.40
2023-06-11T16:35:17.708Z,4.53
2023-06-11T16:37:45.908Z,4.20
2023-06-11T16:40:14.276Z,4.70
2023-06-11T16:42:42.425Z,4.10
2023-06-11T16:45:13.580Z,4.70
2023-06-11T16:47:41.974Z,4.90
2023-06-11T16:50:10.734Z,4.90
2023-06-11T16:52:39.266Z,4.33
2023-06-11T16:55:07.879Z,4.33
2023-06-11T16:57:39.129Z,4.90
2023-06-11T17:00:09.874Z,4.77
2023-06-11T17:02:39.826Z,5.13
2023-06-11T17:05:08.589Z,4.57
2023-06-11T17:07:38.466Z,4.70
2023-06-11T17:10:07.252Z,4.93
2023-06-11T17:12:35.449Z,4.80
2023-06-11T17:15:03.711Z,4.43
2023-06-11T17:17:32.136Z,4.50
2023-06-11T17:20:02.117Z,5.30
2023-06-11T17:22:31.159Z,4.57
2023-06-11T17:24:59.255Z,4.50
2023-06-11T17:27:27.486Z,4.90
2023-06-11T17:29:55.619Z,4.40
2023-06-11T17:32:23.877Z,4.90
2023-06-11T17:34:53.828Z,5.20
2023-06-11T17:37:23.526Z,4.57
2023-06-11T17:39:51.781Z,5.13
2023-06-11T17:42:20.079Z,4.60
2023-06-11T17:44:49.254Z,4.37
2023-06-11T17:47:18.311Z,4.73
2023-06-11T17:49:49.682Z,4.40
2023-06-11T17:52:18.256Z,4.60
2023-06-11T17:54:47.851Z,4.23
2023-06-11T17:57:15.934Z,4.10
2023-06-11T17:59:44.084Z,4.27
2023-06-11T18:02:12.221Z,4.40
2023-06-11T18:04:40.559Z,4.17
2023-06-11T18:07:08.802Z,4.20
2023-06-11T18:09:36.901Z,4.40
2023-06-11T18:12:07.280Z,4.93
2023-06-11T18:14:36.020Z,4.03
2023-06-11T18:17:06.253Z,3.90
2023-06-11T18:19:35.653Z,3.73
2023-06-11T18:22:03.763Z,3.87
2023-06-11T18:24:33.514Z,4.27
2023-06-11T18:27:07.805Z,4.10
2023-06-11T18:29:36.186Z,3.70
2023-06-11T18:32:10.218Z,3.63
2023-06-11T18:34:38.510Z,4.07
2023-06-11T18:37:07.268Z,3.97
2023-06-11T18:39:35.461Z,3.93
2023-06-11T18:42:15.629Z,4.00
2023-06-11T18:44:44.381Z,4.17
2023-06-11T18:47:13.153Z,3.90
2023-06-11T18:49:41.599Z,3.87
2023-06-11T18:52:10.575Z,3.43
2023-06-11T18:54:38.830Z,3.87
